sensor_id;sensor_type;location;lat;lon;timestamp;P1;durP1;ratioP1;P2;durP2;ratioP2
31130;SDS011;20292;50.944;4.034;2022-10-20T00:00:53;27.58;;;15.48;;
31130;SDS011;20292;50.944;4.034;2022-10-20T00:03:21;24.88;;;14.60;;
31130;SDS011;20292;50.944;4.034;2022-10-20T00:05:46;30.83;;;15.68;;
31130;SDS011;20292;50.944;4.034;2022-10-20T00:08:12;23.17;;;14.27;;
31130;SDS011;20292;50.944;4.034;2022-10-20T00:10:37;25.45;;;14.40;;
31130;SDS011;20292;50.944;4.034;2022-10-20T00:13:03;28.38;;;16.00;;
31130;SDS011;20292;50.944;4.034;2022-10-20T00:15:28;29.70;;;15.52;;
31130;SDS011;20292;50.944;4.034;2022-10-20T00:17:54;25.08;;;15.80;;
31130;SDS011;20292;50.944;4.034;2022-10-20T00:20:20;27.92;;;15.85;;
31130;SDS011;20292;50.944;4.034;2022-10-20T00:22:45;28.73;;;15.15;;
31130;SDS011;20292;50.944;4.034;2022-10-20T00:25:11;26.65;;;16.98;;
31130;SDS011;20292;50.944;4.034;2022-10-20T00:27:36;26.77;;;16.58;;
31130;SDS011;20292;50.944;4.034;2022-10-20T00:30:02;27.35;;;16.15;;
31130;SDS011;20292;50.944;4.034;2022-10-20T00:32:28;29.13;;;16.05;;
31130;SDS011;20292;50.944;4.034;2022-10-20T00:34:54;36.50;;;17.13;;
31130;SDS011;20292;50.944;4.034;2022-10-20T00:37:20;27.95;;;17.35;;
31130;SDS011;20292;50.944;4.034;2022-10-20T00:39:46;31.77;;;16.30;;
31130;SDS011;20292;50.944;4.034;2022-10-20T00:42:16;29.23;;;17.27;;
31130;SDS011;20292;50.944;4.034;2022-10-20T00:44:52;28.88;;;17.58;;
31130;SDS011;20292;50.944;4.034;2022-10-20T00:52:39;29.08;;;16.20;;
31130;SDS011;20292;50.944;4.034;2022-10-20T00:55:06;29.05;;;16.35;;
31130;SDS011;20292;50.944;4.034;2022-10-20T00:57:33;29.13;;;16.90;;
31130;SDS011;20292;50.944;4.034;2022-10-20T01:00:00;31.10;;;16.90;;
31130;SDS011;20292;50.944;4.034;2022-10-20T01:02:26;26.40;;;16.40;;
31130;SDS011;20292;50.944;4.034;2022-10-20T01:04:51;32.35;;;17.95;;
31130;SDS011;20292;50.944;4.034;2022-10-20T01:07:17;32.50;;;17.23;;
31130;SDS011;20292;50.944;4.034;2022-10-20T01:09:43;29.55;;;17.38;;
31130;SDS011;20292;50.944;4.034;2022-10-20T01:14:54;32.10;;;17.77;;
31130;SDS011;20292;50.944;4.034;2022-10-20T01:28:07;31.73;;;18.20;;
31130;SDS011;20292;50.944;4.034;2022-10-20T01:30:46;33.67;;;19.15;;
31130;SDS011;20292;50.944;4.034;2022-10-20T01:33:36;34.30;;;19.60;;
31130;SDS011;20292;50.944;4.034;2022-10-20T01:36:19;33.83;;;18.73;;
31130;SDS011;20292;50.944;4.034;2022-10-20T01:38:53;31.00;;;18.38;;
31130;SDS011;20292;50.944;4.034;2022-10-20T01:44:09;37.53;;;19.03;;
31130;SDS011;20292;50.944;4.034;2022-10-20T01:46:38;33.60;;;19.15;;
31130;SDS011;20292;50.944;4.034;2022-10-20T01:49:06;31.00;;;18.15;;
31130;SDS011;20292;50.944;4.034;2022-10-20T01:51:32;34.60;;;18.52;;
31130;SDS011;20292;50.944;4.034;2022-10-20T01:53:58;33.50;;;18.65;;
31130;SDS011;20292;50.944;4.034;2022-10-20T02:04:39;34.45;;;17.83;;
31130;SDS011;20292;50.944;4.034;2022-10-20T02:07:24;32.50;;;18.02;;
31130;SDS011;20292;50.944;4.034;2022-10-20T02:09:54;31.10;;;18.27;;
31130;SDS011;20292;50.944;4.034;2022-10-20T02:13:02;32.05;;;18.85;;
31130;SDS011;20292;50.944;4.034;2022-10-20T02:15:29;32.53;;;18.77;;
31130;SDS011;20292;50.944;4.034;2022-10-20T02:18:01;30.00;;;18.25;;
31130;SDS011;20292;50.944;4.034;2022-10-20T02:20:29;32.42;;;18.80;;
31130;SDS011;20292;50.944;4.034;2022-10-20T02:22:56;27.90;;;17.83;;
31130;SDS011;20292;50.944;4.034;2022-10-20T02:25:23;30.27;;;17.95;;
31130;SDS011;20292;50.944;4.034;2022-10-20T02:27:50;34.53;;;19.13;;
31130;SDS011;20292;50.944;4.034;2022-10-20T02:30:17;30.83;;;17.95;;
31130;SDS011;20292;50.944;4.034;2022-10-20T02:32:43;36.38;;;19.30;;
31130;SDS011;20292;50.944;4.034;2022-10-20T02:35:14;29.27;;;17.60;;
31130;SDS011;20292;50.944;4.034;2022-10-20T02:37:43;29.88;;;18.33;;
31130;SDS011;20292;50.944;4.034;2022-10-20T02:40:09;32.00;;;18.23;;
31130;SDS011;20292;50.944;4.034;2022-10-20T02:42:35;29.60;;;17.58;;
31130;SDS011;20292;50.944;4.034;2022-10-20T02:45:01;30.92;;;17.92;;
31130;SDS011;20292;50.944;4.034;2022-10-20T02:47:28;34.00;;;18.40;;
31130;SDS011;20292;50.944;4.034;2022-10-20T02:49:53;31.75;;;18.17;;
31130;SDS011;20292;50.944;4.034;2022-10-20T02:52:19;35.13;;;18.65;;
31130;SDS011;20292;50.944;4.034;2022-10-20T02:54:44;32.55;;;18.02;;
31130;SDS011;20292;50.944;4.034;2022-10-20T02:57:10;29.85;;;17.05;;
31130;SDS011;20292;50.944;4.034;2022-10-20T02:59:36;30.08;;;18.20;;
31130;SDS011;20292;50.944;4.034;2022-10-20T03:02:02;30.77;;;17.50;;
31130;SDS011;20292;50.944;4.034;2022-10-20T03:04:27;26.10;;;16.35;;
31130;SDS011;20292;50.944;4.034;2022-10-20T03:06:53;29.60;;;16.83;;
31130;SDS011;20292;50.944;4.034;2022-10-20T03:09:19;29.13;;;17.20;;
31130;SDS011;20292;50.944;4.034;2022-10-20T03:11:44;30.70;;;17.50;;
31130;SDS011;20292;50.944;4.034;2022-10-20T03:14:10;28.55;;;16.45;;
31130;SDS011;20292;50.944;4.034;2022-10-20T03:16:36;31.33;;;16.70;;
31130;SDS011;20292;50.944;4.034;2022-10-20T03:19:02;28.88;;;17.95;;
31130;SDS011;20292;50.944;4.034;2022-10-20T03:21:27;29.80;;;16.83;;
31130;SDS011;20292;50.944;4.034;2022-10-20T03:23:53;28.15;;;16.73;;
31130;SDS011;20292;50.944;4.034;2022-10-20T03:26:19;33.00;;;17.83;;
31130;SDS011;20292;50.944;4.034;2022-10-20T03:28:45;31.95;;;17.52;;
31130;SDS011;20292;50.944;4.034;2022-10-20T03:31:10;28.63;;;17.45;;
31130;SDS011;20292;50.944;4.034;2022-10-20T03:33:36;32.40;;;17.50;;
31130;SDS011;20292;50.944;4.034;2022-10-20T03:36:02;34.35;;;18.05;;
31130;SDS011;20292;50.944;4.034;2022-10-20T03:38:29;31.95;;;17.90;;
31130;SDS011;20292;50.944;4.034;2022-10-20T03:40:54;31.25;;;18.05;;
31130;SDS011;20292;50.944;4.034;2022-10-20T03:43:20;37.55;;;18.48;;
31130;SDS011;20292;50.944;4.034;2022-10-20T03:45:46;29.20;;;17.75;;
31130;SDS011;20292;50.944;4.034;2022-10-20T03:48:11;32.35;;;17.98;;
31130;SDS011;20292;50.944;4.034;2022-10-20T03:50:38;28.80;;;18.02;;
31130;SDS011;20292;50.944;4.034;2022-10-20T03:53:04;32.92;;;17.80;;
31130;SDS011;20292;50.944;4.034;2022-10-20T03:55:30;34.53;;;18.52;;
31130;SDS011;20292;50.944;4.034;2022-10-20T03:57:56;30.85;;;18.38;;
31130;SDS011;20292;50.944;4.034;2022-10-20T04:00:22;32.85;;;18.65;;
31130;SDS011;20292;50.944;4.034;2022-10-20T04:02:47;31.10;;;17.83;;
31130;SDS011;20292;50.944;4.034;2022-10-20T04:05:15;29.65;;;18.33;;
31130;SDS011;20292;50.944;4.034;2022-10-20T04:07:43;32.72;;;20.10;;
31130;SDS011;20292;50.944;4.034;2022-10-20T04:10:09;36.05;;;19.35;;
31130;SDS011;20292;50.944;4.034;2022-10-20T04:12:35;37.55;;;19.38;;
31130;SDS011;20292;50.944;4.034;2022-10-20T04:15:01;41.47;;;19.90;;
31130;SDS011;20292;50.944;4.034;2022-10-20T04:17:28;27.90;;;18.30;;
31130;SDS011;20292;50.944;4.034;2022-10-20T04:19:53;35.00;;;18.65;;
31130;SDS011;20292;50.944;4.034;2022-10-20T04:22:19;31.42;;;18.35;;
31130;SDS011;20292;50.944;4.034;2022-10-20T04:24:45;28.52;;;18.75;;
31130;SDS011;20292;50.944;4.034;2022-10-20T04:27:10;35.83;;;19.85;;
31130;SDS011;20292;50.944;4.034;2022-10-20T04:29:36;29.85;;;18.08;;
31130;SDS011;20292;50.944;4.034;2022-10-20T04:32:01;31.75;;;18.75;;
31130;SDS011;20292;50.944;4.034;2022-10-20T04:34:27;34.15;;;18.73;;
31130;SDS011;20292;50.944;4.034;2022-10-20T04:36:53;27.70;;;17.90;;
31130;SDS011;20292;50.944;4.034;2022-10-20T04:39:18;31.30;;;17.95;;
31130;SDS011;20292;50.944;4.034;2022-10-20T04:41:44;33.53;;;17.92;;
31130;SDS011;20292;50.944;4.034;2022-10-20T04:44:10;31.48;;;18.00;;
31130;SDS011;20292;50.944;4.034;2022-10-20T04:46:35;30.55;;;19.02;;
31130;SDS011;20292;50.944;4.034;2022-10-20T04:49:01;34.15;;;19.92;;
31130;SDS011;20292;50.944;4.034;2022-10-20T04:51:27;30.33;;;18.50;;
31130;SDS011;20292;50.944;4.034;2022-10-20T04:53:52;30.40;;;17.40;;
31130;SDS011;20292;50.944;4.034;2022-10-20T04:56:19;32.47;;;18.73;;
31130;SDS011;20292;50.944;4.034;2022-10-20T04:58:46;28.40;;;17.48;;
31130;SDS011;20292;50.944;4.034;2022-10-20T05:01:12;32.25;;;18.73;;
31130;SDS011;20292;50.944;4.034;2022-10-20T05:03:38;35.28;;;19.52;;
31130;SDS011;20292;50.944;4.034;2022-10-20T05:06:20;30.40;;;18.50;;
31130;SDS011;20292;50.944;4.034;2022-10-20T05:08:46;30.35;;;18.52;;
31130;SDS011;20292;50.944;4.034;2022-10-20T05:11:13;30.40;;;17.52;;
31130;SDS011;20292;50.944;4.034;2022-10-20T05:13:41;25.92;;;17.77;;
31130;SDS011;20292;50.944;4.034;2022-10-20T05:16:07;27.90;;;18.08;;
31130;SDS011;20292;50.944;4.034;2022-10-20T05:18:33;31.27;;;16.45;;
31130;SDS011;20292;50.944;4.034;2022-10-20T05:21:03;35.88;;;17.45;;
31130;SDS011;20292;50.944;4.034;2022-10-20T05:23:34;32.63;;;18.05;;
31130;SDS011;20292;50.944;4.034;2022-10-20T05:26:03;27.42;;;16.20;;
31130;SDS011;20292;50.944;4.034;2022-10-20T05:28:30;26.92;;;16.13;;
31130;SDS011;20292;50.944;4.034;2022-10-20T05:30:59;35.63;;;16.42;;
31130;SDS011;20292;50.944;4.034;2022-10-20T05:33:26;32.03;;;17.05;;
31130;SDS011;20292;50.944;4.034;2022-10-20T05:35:52;29.95;;;16.80;;
31130;SDS011;20292;50.944;4.034;2022-10-20T05:38:18;26.33;;;16.60;;
31130;SDS011;20292;50.944;4.034;2022-10-20T05:40:43;28.23;;;16.83;;
31130;SDS011;20292;50.944;4.034;2022-10-20T05:43:09;26.63;;;17.60;;
31130;SDS011;20292;50.944;4.034;2022-10-20T05:45:35;30.73;;;16.90;;
31130;SDS011;20292;50.944;4.034;2022-10-20T05:48:00;27.42;;;16.63;;
31130;SDS011;20292;50.944;4.034;2022-10-20T05:50:26;26.85;;;16.98;;
31130;SDS011;20292;50.944;4.034;2022-10-20T05:52:52;28.30;;;16.65;;
31130;SDS011;20292;50.944;4.034;2022-10-20T05:55:17;24.30;;;15.32;;
31130;SDS011;20292;50.944;4.034;2022-10-20T05:57:43;26.17;;;15.93;;
31130;SDS011;20292;50.944;4.034;2022-10-20T06:00:09;27.02;;;15.75;;
31130;SDS011;20292;50.944;4.034;2022-10-20T06:02:35;31.58;;;15.93;;
31130;SDS011;20292;50.944;4.034;2022-10-20T06:05:01;30.50;;;15.35;;
31130;SDS011;20292;50.944;4.034;2022-10-20T06:07:27;27.45;;;15.43;;
31130;SDS011;20292;50.944;4.034;2022-10-20T06:09:53;24.92;;;15.63;;
31130;SDS011;20292;50.944;4.034;2022-10-20T06:12:18;22.25;;;14.68;;
31130;SDS011;20292;50.944;4.034;2022-10-20T06:14:44;22.67;;;14.55;;
31130;SDS011;20292;50.944;4.034;2022-10-20T06:17:10;31.60;;;14.98;;
31130;SDS011;20292;50.944;4.034;2022-10-20T06:19:35;27.52;;;15.40;;
31130;SDS011;20292;50.944;4.034;2022-10-20T06:22:01;27.15;;;14.57;;
31130;SDS011;20292;50.944;4.034;2022-10-20T06:24:27;26.92;;;15.43;;
31130;SDS011;20292;50.944;4.034;2022-10-20T06:26:52;24.85;;;14.32;;
31130;SDS011;20292;50.944;4.034;2022-10-20T06:29:18;28.25;;;14.45;;
31130;SDS011;20292;50.944;4.034;2022-10-20T06:31:45;22.20;;;13.98;;
31130;SDS011;20292;50.944;4.034;2022-10-20T06:34:13;33.65;;;14.73;;
31130;SDS011;20292;50.944;4.034;2022-10-20T06:36:42;27.08;;;13.60;;
31130;SDS011;20292;50.944;4.034;2022-10-20T06:39:10;24.00;;;13.00;;
31130;SDS011;20292;50.944;4.034;2022-10-20T06:41:38;30.83;;;13.48;;
31130;SDS011;20292;50.944;4.034;2022-10-20T06:44:04;18.67;;;12.05;;
31130;SDS011;20292;50.944;4.034;2022-10-20T06:46:31;19.20;;;11.60;;
31130;SDS011;20292;50.944;4.034;2022-10-20T06:48:59;20.55;;;12.10;;
31130;SDS011;20292;50.944;4.034;2022-10-20T06:51:27;25.20;;;12.68;;
31130;SDS011;20292;50.944;4.034;2022-10-20T06:53:53;22.85;;;11.25;;
31130;SDS011;20292;50.944;4.034;2022-10-20T06:56:20;21.35;;;11.52;;
31130;SDS011;20292;50.944;4.034;2022-10-20T06:58:48;17.75;;;11.65;;
31130;SDS011;20292;50.944;4.034;2022-10-20T07:03:43;18.63;;;11.30;;
31130;SDS011;20292;50.944;4.034;2022-10-20T07:06:12;23.00;;;11.27;;
31130;SDS011;20292;50.944;4.034;2022-10-20T07:08:39;29.50;;;11.13;;
31130;SDS011;20292;50.944;4.034;2022-10-20T07:11:06;21.67;;;10.52;;
31130;SDS011;20292;50.944;4.034;2022-10-20T07:13:33;19.05;;;10.73;;
31130;SDS011;20292;50.944;4.034;2022-10-20T07:16:00;22.98;;;10.88;;
31130;SDS011;20292;50.944;4.034;2022-10-20T07:18:26;18.30;;;10.80;;
31130;SDS011;20292;50.944;4.034;2022-10-20T07:20:57;17.25;;;10.07;;
31130;SDS011;20292;50.944;4.034;2022-10-20T07:23:27;20.60;;;10.93;;
31130;SDS011;20292;50.944;4.034;2022-10-20T07:26:04;16.83;;;10.10;;
31130;SDS011;20292;50.944;4.034;2022-10-20T07:28:33;17.88;;;10.25;;
31130;SDS011;20292;50.944;4.034;2022-10-20T07:31:04;20.80;;;10.50;;
31130;SDS011;20292;50.944;4.034;2022-10-20T07:33:31;21.80;;;10.32;;
31130;SDS011;20292;50.944;4.034;2022-10-20T07:35:57;20.27;;;10.85;;
31130;SDS011;20292;50.944;4.034;2022-10-20T07:38:23;22.25;;;9.93;;
31130;SDS011;20292;50.944;4.034;2022-10-20T07:40:49;15.13;;;9.82;;
31130;SDS011;20292;50.944;4.034;2022-10-20T07:43:14;19.55;;;10.25;;
31130;SDS011;20292;50.944;4.034;2022-10-20T07:45:40;21.15;;;10.70;;
31130;SDS011;20292;50.944;4.034;2022-10-20T07:48:06;19.67;;;10.10;;
31130;SDS011;20292;50.944;4.034;2022-10-20T07:50:34;19.35;;;10.35;;
31130;SDS011;20292;50.944;4.034;2022-10-20T07:53:00;22.88;;;10.50;;
31130;SDS011;20292;50.944;4.034;2022-10-20T07:55:26;18.75;;;10.55;;
31130;SDS011;20292;50.944;4.034;2022-10-20T07:57:51;19.08;;;11.10;;
31130;SDS011;20292;50.944;4.034;2022-10-20T08:00:17;20.73;;;10.63;;
31130;SDS011;20292;50.944;4.034;2022-10-20T08:02:42;16.13;;;10.18;;
31130;SDS011;20292;50.944;4.034;2022-10-20T08:05:09;18.85;;;11.25;;
31130;SDS011;20292;50.944;4.034;2022-10-20T08:07:35;20.50;;;11.32;;
31130;SDS011;20292;50.944;4.034;2022-10-20T08:10:00;18.77;;;11.02;;
31130;SDS011;20292;50.944;4.034;2022-10-20T08:12:26;19.95;;;10.18;;
31130;SDS011;20292;50.944;4.034;2022-10-20T08:14:51;16.15;;;11.35;;
31130;SDS011;20292;50.944;4.034;2022-10-20T08:17:17;27.88;;;11.57;;
31130;SDS011;20292;50.944;4.034;2022-10-20T08:19:43;21.95;;;11.40;;
31130;SDS011;20292;50.944;4.034;2022-10-20T08:22:09;23.35;;;11.23;;
31130;SDS011;20292;50.944;4.034;2022-10-20T08:24:35;21.42;;;11.32;;
31130;SDS011;20292;50.944;4.034;2022-10-20T08:27:00;25.05;;;12.25;;
31130;SDS011;20292;50.944;4.034;2022-10-20T08:29:26;21.92;;;11.85;;
31130;SDS011;20292;50.944;4.034;2022-10-20T08:31:52;30.90;;;12.93;;
31130;SDS011;20292;50.944;4.034;2022-10-20T08:34:17;21.15;;;11.95;;
31130;SDS011;20292;50.944;4.034;2022-10-20T08:36:43;23.50;;;13.05;;
31130;SDS011;20292;50.944;4.034;2022-10-20T08:39:08;26.20;;;13.57;;
31130;SDS011;20292;50.944;4.034;2022-10-20T08:41:38;32.58;;;13.57;;
31130;SDS011;20292;50.944;4.034;2022-10-20T08:44:07;22.70;;;13.40;;
31130;SDS011;20292;50.944;4.034;2022-10-20T08:46:42;24.02;;;12.93;;
31130;SDS011;20292;50.944;4.034;2022-10-20T08:49:11;25.13;;;13.02;;
31130;SDS011;20292;50.944;4.034;2022-10-20T08:51:50;21.73;;;12.90;;
31130;SDS011;20292;50.944;4.034;2022-10-20T08:54:16;25.80;;;13.23;;
31130;SDS011;20292;50.944;4.034;2022-10-20T08:56:42;22.75;;;12.65;;
31130;SDS011;20292;50.944;4.034;2022-10-20T08:59:24;24.83;;;13.57;;
31130;SDS011;20292;50.944;4.034;2022-10-20T09:01:52;27.77;;;14.63;;
31130;SDS011;20292;50.944;4.034;2022-10-20T09:04:20;25.98;;;14.10;;
31130;SDS011;20292;50.944;4.034;2022-10-20T09:07:12;25.83;;;13.43;;
31130;SDS011;20292;50.944;4.034;2022-10-20T09:09:47;20.23;;;13.55;;
31130;SDS011;20292;50.944;4.034;2022-10-20T09:12:12;23.95;;;13.82;;
31130;SDS011;20292;50.944;4.034;2022-10-20T09:14:39;29.45;;;15.05;;
31130;SDS011;20292;50.944;4.034;2022-10-20T09:17:05;22.33;;;14.07;;
31130;SDS011;20292;50.944;4.034;2022-10-20T09:19:39;31.45;;;15.45;;
31130;SDS011;20292;50.944;4.034;2022-10-20T09:22:12;29.77;;;14.73;;
31130;SDS011;20292;50.944;4.034;2022-10-20T09:24:40;30.98;;;14.23;;
31130;SDS011;20292;50.944;4.034;2022-10-20T09:27:49;28.35;;;14.25;;
31130;SDS011;20292;50.944;4.034;2022-10-20T09:30:04;21.35;;;14.15;;
31130;SDS011;20292;50.944;4.034;2022-10-20T09:32:41;30.25;;;14.32;;
31130;SDS011;20292;50.944;4.034;2022-10-20T09:35:18;30.00;;;14.30;;
31130;SDS011;20292;50.944;4.034;2022-10-20T09:38:29;32.83;;;14.52;;
31130;SDS011;20292;50.944;4.034;2022-10-20T09:40:35;21.50;;;13.23;;
31130;SDS011;20292;50.944;4.034;2022-10-20T09:43:09;22.77;;;12.82;;
31130;SDS011;20292;50.944;4.034;2022-10-20T09:45:46;22.30;;;12.65;;
31130;SDS011;20292;50.944;4.034;2022-10-20T09:50:53;24.73;;;13.65;;
31130;SDS011;20292;50.944;4.034;2022-10-20T09:53:22;25.90;;;11.68;;
31130;SDS011;20292;50.944;4.034;2022-10-20T09:55:52;25.00;;;12.32;;
31130;SDS011;20292;50.944;4.034;2022-10-20T09:58:34;25.30;;;12.20;;
31130;SDS011;20292;50.944;4.034;2022-10-20T10:01:06;23.77;;;11.85;;
31130;SDS011;20292;50.944;4.034;2022-10-20T10:03:39;22.33;;;11.43;;
31130;SDS011;20292;50.944;4.034;2022-10-20T10:06:20;22.38;;;11.20;;
31130;SDS011;20292;50.944;4.034;2022-10-20T10:08:46;18.98;;;11.02;;
31130;SDS011;20292;50.944;4.034;2022-10-20T10:11:15;21.92;;;13.90;;
31130;SDS011;20292;50.944;4.034;2022-10-20T10:13:44;20.83;;;11.35;;
31130;SDS011;20292;50.944;4.034;2022-10-20T10:16:12;25.58;;;10.32;;
31130;SDS011;20292;50.944;4.034;2022-10-20T10:18:40;22.65;;;11.25;;
31130;SDS011;20292;50.944;4.034;2022-10-20T10:21:10;18.77;;;10.50;;
31130;SDS011;20292;50.944;4.034;2022-10-20T10:23:52;20.15;;;10.25;;
31130;SDS011;20292;50.944;4.034;2022-10-20T10:29:32;19.05;;;9.88;;
31130;SDS011;20292;50.944;4.034;2022-10-20T10:32:00;19.27;;;9.23;;
31130;SDS011;20292;50.944;4.034;2022-10-20T10:37:02;20.92;;;10.10;;
31130;SDS011;20292;50.944;4.034;2022-10-20T10:39:28;15.43;;;9.48;;
31130;SDS011;20292;50.944;4.034;2022-10-20T10:58:55;19.58;;;8.93;;
31130;SDS011;20292;50.944;4.034;2022-10-20T11:09:59;17.00;;;7.57;;
31130;SDS011;20292;50.944;4.034;2022-10-20T11:21:19;21.67;;;7.47;;
31130;SDS011;20292;50.944;4.034;2022-10-20T11:27:10;17.45;;;6.47;;
31130;SDS011;20292;50.944;4.034;2022-10-20T11:29:40;13.07;;;6.57;;
31130;SDS011;20292;50.944;4.034;2022-10-20T11:32:16;20.70;;;6.50;;
31130;SDS011;20292;50.944;4.034;2022-10-20T11:34:49;11.52;;;6.57;;
31130;SDS011;20292;50.944;4.034;2022-10-20T11:37:22;13.30;;;5.68;;
31130;SDS011;20292;50.944;4.034;2022-10-20T11:39:54;16.67;;;5.88;;
31130;SDS011;20292;50.944;4.034;2022-10-20T11:42:47;11.30;;;5.50;;
31130;SDS011;20292;50.944;4.034;2022-10-20T11:48:00;15.13;;;5.53;;
31130;SDS011;20292;50.944;4.034;2022-10-20T11:50:34;15.38;;;6.13;;
31130;SDS011;20292;50.944;4.034;2022-10-20T12:12:07;23.67;;;5.97;;
31130;SDS011;20292;50.944;4.034;2022-10-20T12:14:55;16.77;;;5.05;;
31130;SDS011;20292;50.944;4.034;2022-10-20T12:20:39;14.85;;;4.93;;
31130;SDS011;20292;50.944;4.034;2022-10-20T12:22:52;13.48;;;4.20;;
31130;SDS011;20292;50.944;4.034;2022-10-20T12:30:52;10.95;;;3.63;;
31130;SDS011;20292;50.944;4.034;2022-10-20T12:34:12;12.70;;;3.90;;
31130;SDS011;20292;50.944;4.034;2022-10-20T12:38:52;10.70;;;3.47;;
31130;SDS011;20292;50.944;4.034;2022-10-20T12:41:33;12.25;;;3.47;;
31130;SDS011;20292;50.944;4.034;2022-10-20T12:44:04;7.97;;;3.08;;
31130;SDS011;20292;50.944;4.034;2022-10-20T12:46:32;11.52;;;3.65;;
31130;SDS011;20292;50.944;4.034;2022-10-20T12:49:05;8.77;;;3.95;;
31130;SDS011;20292;50.944;4.034;2022-10-20T12:51:37;11.75;;;3.50;;
31130;SDS011;20292;50.944;4.034;2022-10-20T12:54:06;10.48;;;3.75;;
31130;SDS011;20292;50.944;4.034;2022-10-20T12:56:45;15.15;;;4.18;;
31130;SDS011;20292;50.944;4.034;2022-10-20T13:04:52;10.88;;;3.30;;
31130;SDS011;20292;50.944;4.034;2022-10-20T13:26:22;12.52;;;3.53;;
31130;SDS011;20292;50.944;4.034;2022-10-20T13:28:54;16.10;;;3.47;;
31130;SDS011;20292;50.944;4.034;2022-10-20T13:31:33;15.23;;;3.88;;
31130;SDS011;20292;50.944;4.034;2022-10-20T13:36:58;15.32;;;3.40;;
31130;SDS011;20292;50.944;4.034;2022-10-20T13:42:39;7.07;;;2.88;;
31130;SDS011;20292;50.944;4.034;2022-10-20T13:48:06;8.25;;;2.63;;
31130;SDS011;20292;50.944;4.034;2022-10-20T13:50:37;8.25;;;2.72;;
31130;SDS011;20292;50.944;4.034;2022-10-20T13:53:18;8.23;;;2.60;;
31130;SDS011;20292;50.944;4.034;2022-10-20T13:55:58;9.45;;;3.10;;
31130;SDS011;20292;50.944;4.034;2022-10-20T13:58:32;4.70;;;2.55;;
31130;SDS011;20292;50.944;4.034;2022-10-20T14:01:03;11.63;;;4.05;;
31130;SDS011;20292;50.944;4.034;2022-10-20T14:03:31;9.18;;;2.70;;
31130;SDS011;20292;50.944;4.034;2022-10-20T14:06:04;5.03;;;2.35;;
31130;SDS011;20292;50.944;4.034;2022-10-20T14:08:30;9.68;;;2.63;;
31130;SDS011;20292;50.944;4.034;2022-10-20T14:11:06;8.10;;;2.80;;
31130;SDS011;20292;50.944;4.034;2022-10-20T14:13:35;11.57;;;2.85;;
31130;SDS011;20292;50.944;4.034;2022-10-20T14:16:03;7.93;;;2.47;;
31130;SDS011;20292;50.944;4.034;2022-10-20T14:18:32;17.80;;;3.08;;
31130;SDS011;20292;50.944;4.034;2022-10-20T14:21:00;9.85;;;2.50;;
31130;SDS011;20292;50.944;4.034;2022-10-20T14:23:36;6.20;;;2.50;;
31130;SDS011;20292;50.944;4.034;2022-10-20T14:26:06;10.45;;;2.83;;
31130;SDS011;20292;50.944;4.034;2022-10-20T14:28:40;9.75;;;2.88;;
31130;SDS011;20292;50.944;4.034;2022-10-20T14:31:07;10.55;;;3.00;;
31130;SDS011;20292;50.944;4.034;2022-10-20T14:33:38;7.90;;;2.60;;
31130;SDS011;20292;50.944;4.034;2022-10-20T14:36:27;8.02;;;2.63;;
31130;SDS011;20292;50.944;4.034;2022-10-20T14:38:54;8.43;;;2.63;;
31130;SDS011;20292;50.944;4.034;2022-10-20T14:43:59;8.50;;;2.47;;
31130;SDS011;20292;50.944;4.034;2022-10-20T14:46:33;9.50;;;2.70;;
31130;SDS011;20292;50.944;4.034;2022-10-20T14:49:01;9.57;;;2.80;;
31130;SDS011;20292;50.944;4.034;2022-10-20T14:56:52;9.13;;;2.72;;
31130;SDS011;20292;50.944;4.034;2022-10-20T14:59:30;10.93;;;3.13;;
31130;SDS011;20292;50.944;4.034;2022-10-20T15:02:11;8.98;;;3.00;;
31130;SDS011;20292;50.944;4.034;2022-10-20T15:04:43;10.73;;;2.87;;
31130;SDS011;20292;50.944;4.034;2022-10-20T15:07:14;10.75;;;2.65;;
31130;SDS011;20292;50.944;4.034;2022-10-20T15:09:52;7.70;;;2.75;;
31130;SDS011;20292;50.944;4.034;2022-10-20T15:12:26;13.18;;;2.88;;
31130;SDS011;20292;50.944;4.034;2022-10-20T15:15:13;5.70;;;2.67;;
31130;SDS011;20292;50.944;4.034;2022-10-20T15:17:50;9.70;;;3.25;;
31130;SDS011;20292;50.944;4.034;2022-10-20T15:22:55;13.38;;;3.05;;
31130;SDS011;20292;50.944;4.034;2022-10-20T15:25:22;11.05;;;3.10;;
31130;SDS011;20292;50.944;4.034;2022-10-20T15:27:49;19.60;;;3.85;;
31130;SDS011;20292;50.944;4.034;2022-10-20T15:30:15;11.75;;;3.30;;
31130;SDS011;20292;50.944;4.034;2022-10-20T15:32:45;12.27;;;4.13;;
31130;SDS011;20292;50.944;4.034;2022-10-20T15:35:12;12.85;;;3.58;;
31130;SDS011;20292;50.944;4.034;2022-10-20T15:37:43;10.60;;;3.35;;
31130;SDS011;20292;50.944;4.034;2022-10-20T15:40:12;7.45;;;3.47;;
31130;SDS011;20292;50.944;4.034;2022-10-20T15:42:38;13.27;;;3.95;;
31130;SDS011;20292;50.944;4.034;2022-10-20T15:45:10;10.10;;;3.70;;
31130;SDS011;20292;50.944;4.034;2022-10-20T15:47:48;12.75;;;3.35;;
31130;SDS011;20292;50.944;4.034;2022-10-20T15:50:14;13.02;;;3.25;;
31130;SDS011;20292;50.944;4.034;2022-10-20T15:52:41;9.57;;;3.28;;
31130;SDS011;20292;50.944;4.034;2022-10-20T15:55:16;13.23;;;3.45;;
31130;SDS011;20292;50.944;4.034;2022-10-20T15:57:46;7.55;;;3.60;;
31130;SDS011;20292;50.944;4.034;2022-10-20T16:00:15;9.88;;;3.50;;
31130;SDS011;20292;50.944;4.034;2022-10-20T16:02:42;11.90;;;3.80;;
31130;SDS011;20292;50.944;4.034;2022-10-20T16:05:08;13.07;;;3.40;;
31130;SDS011;20292;50.944;4.034;2022-10-20T16:07:33;8.02;;;3.35;;
31130;SDS011;20292;50.944;4.034;2022-10-20T16:09:59;12.40;;;3.80;;
31130;SDS011;20292;50.944;4.034;2022-10-20T16:12:24;9.70;;;4.28;;
31130;SDS011;20292;50.944;4.034;2022-10-20T16:14:50;9.95;;;3.67;;
31130;SDS011;20292;50.944;4.034;2022-10-20T16:17:16;12.60;;;5.03;;
31130;SDS011;20292;50.944;4.034;2022-10-20T16:19:42;10.32;;;4.70;;
31130;SDS011;20292;50.944;4.034;2022-10-20T16:22:07;13.32;;;4.20;;
31130;SDS011;20292;50.944;4.034;2022-10-20T16:24:33;8.15;;;3.83;;
31130;SDS011;20292;50.944;4.034;2022-10-20T16:26:58;13.85;;;3.72;;
31130;SDS011;20292;50.944;4.034;2022-10-20T16:29:24;16.52;;;4.43;;
31130;SDS011;20292;50.944;4.034;2022-10-20T16:31:50;12.20;;;4.18;;
31130;SDS011;20292;50.944;4.034;2022-10-20T16:34:15;10.38;;;3.72;;
31130;SDS011;20292;50.944;4.034;2022-10-20T16:36:41;10.82;;;4.40;;
31130;SDS011;20292;50.944;4.034;2022-10-20T16:39:06;8.25;;;3.65;;
31130;SDS011;20292;50.944;4.034;2022-10-20T16:41:32;14.77;;;4.25;;
31130;SDS011;20292;50.944;4.034;2022-10-20T16:43:58;11.13;;;3.50;;
31130;SDS011;20292;50.944;4.034;2022-10-20T16:46:24;12.15;;;3.83;;
31130;SDS011;20292;50.944;4.034;2022-10-20T16:48:49;12.00;;;3.90;;
31130;SDS011;20292;50.944;4.034;2022-10-20T16:51:15;7.78;;;3.58;;
31130;SDS011;20292;50.944;4.034;2022-10-20T16:53:41;9.18;;;4.07;;
31130;SDS011;20292;50.944;4.034;2022-10-20T16:56:07;8.00;;;3.72;;
31130;SDS011;20292;50.944;4.034;2022-10-20T16:58:33;13.40;;;4.25;;
31130;SDS011;20292;50.944;4.034;2022-10-20T17:01:00;8.07;;;3.45;;
31130;SDS011;20292;50.944;4.034;2022-10-20T17:03:30;9.02;;;3.70;;
31130;SDS011;20292;50.944;4.034;2022-10-20T17:05:57;15.55;;;4.32;;
31130;SDS011;20292;50.944;4.034;2022-10-20T17:08:24;13.60;;;4.05;;
31130;SDS011;20292;50.944;4.034;2022-10-20T17:10:54;11.02;;;3.97;;
31130;SDS011;20292;50.944;4.034;2022-10-20T17:13:23;12.68;;;4.28;;